createdAt,value
2016-07-13T00:00:25.646Z,71.06
2016-07-13T00:01:25.675Z,70.97
2016-07-13T00:02:25.687Z,71.55
2016-07-13T00:03:25.708Z,71.45
2016-07-13T00:04:25.730Z,70.87
2016-07-13T00:05:25.752Z,71.73
2016-07-13T00:06:25.767Z,71.55
2016-07-13T00:07:25.783Z,71.93
2016-07-13T00:08:25.813Z,72.31
2016-07-13T00:09:25.833Z,72.31
2016-07-13T00:10:25.847Z,71.8
2016-07-13T00:11:25.879Z,72.08
2016-07-13T00:12:25.891Z,72.08
2016-07-13T00:13:25.910Z,71.98
2016-07-13T00:14:25.936Z,71.83
2016-07-13T00:15:25.958Z,71.8
2016-07-13T00:16:25.966Z,70.84
2016-07-13T00:17:25.993Z,70.64
2016-07-13T00:18:26.013Z,70.74
2016-07-13T00:19:26.035Z,70.93
2016-07-13T00:20:26.052Z,70.58
2016-07-13T00:21:26.072Z,70.97
2016-07-13T00:22:26.095Z,71.12
2016-07-13T00:23:26.107Z,71.16
2016-07-13T00:24:26.136Z,71.22
2016-07-13T00:25:26.156Z,71.12
2016-07-13T00:26:26.179Z,70.84
2016-07-13T00:27:26.193Z,71.8
2016-07-13T00:28:26.211Z,71.22
2016-07-13T00:29:26.235Z,71.7
2016-07-13T00:30:26.249Z,72.08
2016-07-13T00:31:26.279Z,72.18
2016-07-13T00:32:26.298Z,71.89
2016-07-13T00:33:26.312Z,72.37
2016-07-13T00:34:26.332Z,71.89
2016-07-13T00:35:26.352Z,72.18
2016-07-13T00:36:26.373Z,71.98
2016-07-13T00:37:26.400Z,72.08
2016-07-13T00:38:26.412Z,71.98
2016-07-13T00:39:26.436Z,72.47
2016-07-13T00:40:26.451Z,71.8
2016-07-13T00:41:26.477Z,71.89
2016-07-13T00:42:26.496Z,72.18
2016-07-13T00:43:26.510Z,72.08
2016-07-13T00:44:26.536Z,72.18
2016-07-13T00:45:26.550Z,72.28
2016-07-13T00:46:26.573Z,71.98
2016-07-13T00:47:26.596Z,72.37
2016-07-13T00:48:26.617Z,72.37
2016-07-13T00:49:26.636Z,72.47
2016-07-13T00:50:26.662Z,72.08
2016-07-13T00:51:26.675Z,71.89
2016-07-13T00:52:26.697Z,72.37
2016-07-13T00:53:26.725Z,72.47
2016-07-13T00:54:26.732Z,72.08
2016-07-13T00:55:26.759Z,72.56
2016-07-13T00:56:26.775Z,72.37
2016-07-13T00:57:26.790Z,72.66
2016-07-13T00:58:26.816Z,72.18
2016-07-13T00:59:26.840Z,72.47
2016-07-13T01:00:26.853Z,72.47
2016-07-13T01:01:26.875Z,72.18
2016-07-13T01:02:26.898Z,72.47
2016-07-13T01:03:26.920Z,71.89
2016-07-13T01:04:26.943Z,71.89
2016-07-13T01:05:26.960Z,72.18
2016-07-13T01:06:26.981Z,72.18
2016-07-13T01:07:26.997Z,71.8
2016-07-13T01:08:27.010Z,72.18
2016-07-13T01:09:27.036Z,72.56
2016-07-13T01:10:27.063Z,71.8
2016-07-13T01:11:27.073Z,71.51
2016-07-13T01:12:27.095Z,70.93
2016-07-13T01:13:27.119Z,70.74
2016-07-13T01:14:27.142Z,70.93
2016-07-13T01:15:27.161Z,71.31
2016-07-13T01:16:27.173Z,70.68
2016-07-13T01:17:27.198Z,70.64
2016-07-13T01:18:27.213Z,70.36
2016-07-13T01:19:27.240Z,71.03
2016-07-13T01:20:27.258Z,71.03
2016-07-13T01:21:27.275Z,71.98
2016-07-13T01:22:27.295Z,71.98
2016-07-13T01:23:27.318Z,71.89
2016-07-13T01:24:27.337Z,72.18
2016-07-13T01:25:27.364Z,71.89
2016-07-13T01:26:27.380Z,71.98
2016-07-13T01:27:27.397Z,72.75
2016-07-13T01:28:27.417Z,72.85
2016-07-13T01:29:27.443Z,72.75
2016-07-13T01:30:27.454Z,73.24
2016-07-13T01:31:27.481Z,73.04
2016-07-13T01:32:27.496Z,73.43
2016-07-13T01:33:27.523Z,73.62
2016-07-13T01:34:27.546Z,73
2016-07-13T01:35:27.559Z,73.24
2016-07-13T01:36:27.576Z,73.72
2016-07-13T01:37:27.604Z,73.1
2016-07-13T01:38:27.620Z,72.81
2016-07-13T01:39:27.634Z,73.3
2016-07-13T01:40:27.657Z,73.58
2016-07-13T01:41:27.682Z,73.39
2016-07-13T01:42:27.699Z,73.77
2016-07-13T01:43:27.720Z,73.87
2016-07-13T01:44:27.740Z,73.68
2016-07-13T01:45:27.762Z,73.68
2016-07-13T01:46:27.785Z,73.77
2016-07-13T01:47:27.797Z,73.49
2016-07-13T01:48:27.821Z,73.49
2016-07-13T01:49:27.839Z,73.68
2016-07-13T01:50:27.857Z,73.3
2016-07-13T01:51:27.879Z,73.77
2016-07-13T01:52:27.892Z,73.77
2016-07-13T01:53:27.920Z,73.68
2016-07-13T01:54:27.937Z,72.63
2016-07-13T01:55:27.956Z,72.14
2016-07-13T01:56:27.970Z,72.43
2016-07-13T01:57:27.996Z,73.1
2016-07-13T01:58:28.019Z,72.72
2016-07-13T01:59:28.031Z,72.91
2016-07-13T02:00:28.057Z,72.63
2016-07-13T02:01:28.075Z,73.2
2016-07-13T02:02:28.094Z,73.1
2016-07-13T02:03:28.118Z,73.87
2016-07-13T02:04:28.133Z,73.68
2016-07-13T02:05:28.154Z,73.87
2016-07-13T02:06:28.171Z,74.44
2016-07-13T02:07:28.197Z,74.54
2016-07-13T02:08:28.217Z,74.83
2016-07-13T02:09:28.228Z,74.44
2016-07-13T02:10:28.251Z,73.87
2016-07-13T02:11:28.267Z,73.68
2016-07-13T02:12:28.292Z,73.68
2016-07-13T02:13:28.309Z,74.26
2016-07-13T02:14:28.330Z,73.58
2016-07-13T02:15:28.351Z,74.26
2016-07-13T02:16:28.368Z,74.35
2016-07-13T02:17:28.403Z,74.44
2016-07-13T02:18:28.411Z,74.44
2016-07-13T02:19:28.426Z,74.06
2016-07-13T02:20:28.452Z,73.87
2016-07-13T02:21:28.465Z,74.22
2016-07-13T02:22:28.491Z,74.64
2016-07-13T02:23:28.510Z,74.41
2016-07-13T02:24:28.525Z,74.41
2016-07-13T02:25:28.553Z,73.45
2016-07-13T02:26:28.567Z,73.45
2016-07-13T02:27:28.589Z,73.35
2016-07-13T02:28:28.607Z,73.97
2016-07-13T02:29:28.620Z,74.41
2016-07-13T02:30:28.643Z,74.41
2016-07-13T02:31:28.663Z,73.83
2016-07-13T02:32:28.695Z,73.65
2016-07-13T02:33:28.701Z,73.74
2016-07-13T02:34:28.726Z,74.02
2016-07-13T02:35:28.745Z,74.31
2016-07-13T02:36:28.764Z,74.22
2016-07-13T02:37:28.779Z,74.41
2016-07-13T02:38:28.810Z,74.69
2016-07-13T02:39:28.824Z,74.98
2016-07-13T02:40:28.843Z,74.69
2016-07-13T02:41:28.862Z,74.89
2016-07-13T02:42:28.885Z,75.27
2016-07-13T02:43:28.891Z,75.08
2016-07-13T02:44:28.917Z,75.52
2016-07-13T02:45:28.942Z,75.37
2016-07-13T02:46:28.961Z,75.33
2016-07-13T02:47:28.971Z,75.23
2016-07-13T02:48:28.991Z,75.71
2016-07-13T02:49:29.016Z,76
2016-07-13T02:50:29.040Z,75.71
2016-07-13T02:51:29.060Z,75.43
2016-07-13T02:52:29.075Z,76.29
2016-07-13T02:53:29.093Z,76
2016-07-13T02:54:29.115Z,75.62
2016-07-13T02:55:29.130Z,76
2016-07-13T02:56:29.151Z,76
2016-07-13T02:57:29.172Z,76.77
2016-07-13T02:58:29.188Z,76.19
2016-07-13T02:59:29.206Z,75.23
2016-07-13T03:00:29.238Z,74.47
2016-07-13T03:01:29.247Z,75.04
2016-07-13T03:02:29.267Z,75.23
2016-07-13T03:03:29.289Z,75.23
2016-07-13T03:04:29.314Z,75.23
2016-07-13T03:05:29.332Z,75.33
2016-07-13T03:06:29.344Z,75.23
2016-07-13T03:07:29.369Z,74.57
2016-07-13T03:08:29.384Z,75.04
2016-07-13T03:09:29.402Z,75.52
2016-07-13T03:10:29.425Z,75.23
2016-07-13T03:11:29.442Z,75.14
2016-07-13T03:12:29.464Z,75.43
2016-07-13T03:13:29.487Z,75.33
2016-07-13T03:14:29.502Z,75.81
2016-07-13T03:15:29.525Z,75.71
2016-07-13T03:16:29.538Z,76.1
2016-07-13T03:17:29.558Z,76.1
2016-07-13T03:18:29.581Z,76.1
2016-07-13T03:19:29.595Z,76.29
2016-07-13T03:20:29.618Z,76.15
2016-07-13T03:21:29.635Z,75.9
2016-07-13T03:22:29.660Z,75.9
2016-07-13T03:23:29.675Z,76.1
2016-07-13T03:24:29.700Z,76.25
2016-07-13T03:25:29.713Z,76.06
2016-07-13T03:26:29.729Z,75.87
2016-07-13T03:27:29.756Z,76.54
2016-07-13T03:28:29.774Z,76.64
2016-07-13T03:29:29.795Z,76.64
2016-07-13T03:30:29.809Z,76.73
2016-07-13T03:31:29.840Z,76.64
2016-07-13T03:32:29.847Z,76.44
2016-07-13T03:33:29.875Z,76.35
2016-07-13T03:34:29.889Z,76.73
2016-07-13T03:35:29.905Z,76.92
2016-07-13T03:36:29.927Z,76.44
2016-07-13T03:37:29.948Z,76.82
2016-07-13T03:38:29.970Z,76.44
2016-07-13T03:39:29.988Z,76.54
2016-07-13T03:40:30.004Z,76.73
2016-07-13T03:41:30.024Z,76.73
2016-07-13T03:42:30.041Z,76.54
2016-07-13T03:43:30.067Z,76
2016-07-13T03:44:30.083Z,75.96
2016-07-13T03:45:30.103Z,75.9
2016-07-13T03:46:30.118Z,75.9
2016-07-13T03:47:30.134Z,76.19
2016-07-13T03:48:30.165Z,76.19
2016-07-13T03:49:30.176Z,76.15
2016-07-13T03:50:30.198Z,76.1
2016-07-13T03:51:30.213Z,75.9
2016-07-13T03:52:30.241Z,76.06
2016-07-13T03:53:30.254Z,75.52
2016-07-13T03:54:30.274Z,75.23
2016-07-13T03:55:30.295Z,75.52
2016-07-13T03:56:30.310Z,76.29
2016-07-13T03:57:30.335Z,75.9
2016-07-13T03:58:30.350Z,75.87
2016-07-13T03:59:30.369Z,76.19
2016-07-13T04:00:30.392Z,75.43
2016-07-13T04:01:30.413Z,75.04
2016-07-13T04:02:30.425Z,75.23
2016-07-13T04:03:30.447Z,75.04
2016-07-13T04:04:30.463Z,74.08
2016-07-13T04:05:30.488Z,74.66
2016-07-13T04:06:30.511Z,74.85
2016-07-13T04:07:30.524Z,74.76
2016-07-13T04:08:30.545Z,74.95
2016-07-13T04:09:30.562Z,74.47
2016-07-13T04:10:30.584Z,74.37
2016-07-13T04:11:30.601Z,73.8
2016-07-13T04:12:30.625Z,73.51
2016-07-13T04:13:30.640Z,73.7
2016-07-13T04:14:30.658Z,73.51
2016-07-13T04:15:30.677Z,73.41
2016-07-13T04:16:30.702Z,73.26
2016-07-13T04:17:30.724Z,72.68
2016-07-13T04:18:30.733Z,71.88
2016-07-13T04:19:30.757Z,72.39
2016-07-13T04:20:30.781Z,72.2
2016-07-13T04:21:30.787Z,71.92
2016-07-13T04:22:30.817Z,71.72
2016-07-13T04:23:30.829Z,72.2
2016-07-13T04:24:30.851Z,72.01
2016-07-13T04:25:30.873Z,72.39
2016-07-13T04:26:30.897Z,72.78
2016-07-13T04:27:30.914Z,72.97
2016-07-13T04:28:30.929Z,72.01
2016-07-13T04:29:30.951Z,71.72
2016-07-13T04:30:30.966Z,72.01
2016-07-13T04:31:30.993Z,72.3
2016-07-13T04:32:31.008Z,71.92
2016-07-13T04:33:31.028Z,72.11
2016-07-13T04:34:31.045Z,71.25
2016-07-13T04:35:31.064Z,72.11
2016-07-13T04:36:31.095Z,72.01
2016-07-13T04:37:31.104Z,72.01
2016-07-13T04:38:31.120Z,72.01
2016-07-13T04:39:31.142Z,70.96
2016-07-13T04:40:31.161Z,71.05
2016-07-13T04:41:31.177Z,70.96
2016-07-13T04:42:31.206Z,71.25
2016-07-13T04:43:31.223Z,71.15
2016-07-13T04:44:31.240Z,72.01
2016-07-13T04:45:31.262Z,72.2
2016-07-13T04:46:31.283Z,71.82
2016-07-13T04:47:31.301Z,71.44
2016-07-13T04:48:31.317Z,72.01
2016-07-13T04:49:31.342Z,72.11
2016-07-13T04:50:31.366Z,72.01
2016-07-13T04:51:31.373Z,71.63
2016-07-13T04:52:31.390Z,71.25
2016-07-13T04:53:31.418Z,72.01
2016-07-13T04:54:31.434Z,72.01
2016-07-13T04:55:31.457Z,72.2
2016-07-13T04:56:31.474Z,72.3
2016-07-13T04:57:31.497Z,72.3
2016-07-13T04:58:31.510Z,72.2
2016-07-13T04:59:31.532Z,72.39
2016-07-13T05:00:31.556Z,72.01
2016-07-13T05:01:31.569Z,71.25
2016-07-13T05:02:31.586Z,71.72
2016-07-13T05:03:31.607Z,71.82
2016-07-13T05:04:31.635Z,71.63
2016-07-13T05:05:31.653Z,71.92
2016-07-13T05:06:31.664Z,72.2
2016-07-13T05:07:31.687Z,72.49
2016-07-13T05:08:31.708Z,72.3
2016-07-13T05:09:31.724Z,72.11
2016-07-13T05:10:31.744Z,72.39
2016-07-13T05:11:31.767Z,72.01
2016-07-13T05:12:31.780Z,71.25
2016-07-13T05:13:31.807Z,71.72
2016-07-13T05:14:31.828Z,72.39
2016-07-13T05:15:31.885Z,72.3
2016-07-13T05:16:31.860Z,72.2
2016-07-13T05:17:31.885Z,72.11
2016-07-13T05:18:31.898Z,72.11
2016-07-13T05:19:31.935Z,72.3
2016-07-13T05:20:31.939Z,72.2
2016-07-13T05:21:31.959Z,71.15
2016-07-13T05:22:31.980Z,71.25
2016-07-13T05:23:32.001Z,71.72
2016-07-13T05:24:32.017Z,71.44
2016-07-13T05:25:32.037Z,71.92
2016-07-13T05:26:32.057Z,72.3
2016-07-13T05:27:32.082Z,72.01
2016-07-13T05:28:32.094Z,72.2
2016-07-13T05:29:32.116Z,72.11
2016-07-13T05:30:32.138Z,71.72
2016-07-13T05:31:32.159Z,71.44
2016-07-13T05:32:32.178Z,71.76
2016-07-13T05:33:32.196Z,72.11
2016-07-13T05:34:32.218Z,71.63
2016-07-13T05:35:32.228Z,71.44
2016-07-13T05:36:32.255Z,70.9
2016-07-13T05:37:32.275Z,71.19
2016-07-13T05:38:32.298Z,71.47
2016-07-13T05:39:32.320Z,71.47
2016-07-13T05:40:32.326Z,70.9
2016-07-13T05:41:32.355Z,70.9
2016-07-13T05:42:32.374Z,70.8
2016-07-13T05:43:32.394Z,70.7
2016-07-13T05:44:32.409Z,70.99
2016-07-13T05:45:32.430Z,70.61
2016-07-13T05:46:32.450Z,71.09
2016-07-13T05:47:32.466Z,70.61
2016-07-13T05:48:32.492Z,70.36
2016-07-13T05:49:32.509Z,70.26
2016-07-13T05:50:32.525Z,69.97
2016-07-13T05:51:32.543Z,69.2
2016-07-13T05:52:32.569Z,68.44
2016-07-13T05:53:32.588Z,68.91
2016-07-13T05:54:32.602Z,68.82
2016-07-13T05:55:32.632Z,69.2
2016-07-13T05:56:32.645Z,69.68
2016-07-13T05:57:32.672Z,69.11
2016-07-13T05:58:32.686Z,69.59
2016-07-13T05:59:32.708Z,69.01
2016-07-13T06:00:32.732Z,69.01
2016-07-13T06:01:32.748Z,69.4
2016-07-13T06:02:32.769Z,68.82
2016-07-13T06:03:32.788Z,68.76
2016-07-13T06:04:32.810Z,68.37
2016-07-13T06:05:32.828Z,68.37
2016-07-13T06:06:32.844Z,67.7
2016-07-13T06:07:32.869Z,68.18
2016-07-13T06:08:32.892Z,67.51
2016-07-13T06:09:32.911Z,67.13
2016-07-13T06:10:32.923Z,67.22
2016-07-13T06:11:32.953Z,67.8
2016-07-13T06:12:32.977Z,68.08
2016-07-13T06:13:32.992Z,67.51
2016-07-13T06:14:33.006Z,67.9
2016-07-13T06:15:33.033Z,67.22
2016-07-13T06:16:33.047Z,67.7
2016-07-13T06:17:33.065Z,66.74
2016-07-13T06:18:33.090Z,66.49
2016-07-13T06:19:33.112Z,66.1
2016-07-13T06:20:33.126Z,66.49
2016-07-13T06:21:33.149Z,66.1
2016-07-13T06:22:33.171Z,65.81
2016-07-13T06:23:33.193Z,66.04
2016-07-13T06:24:33.215Z,66.2
2016-07-13T06:25:33.236Z,66.2
2016-07-13T06:26:33.252Z,65.66
2016-07-13T06:27:33.273Z,65.66
2016-07-13T06:28:33.292Z,65.08
2016-07-13T06:29:33.311Z,65.75
2016-07-13T06:30:33.339Z,65.56
2016-07-13T06:31:33.361Z,66.33
2016-07-13T06:32:33.376Z,66.52
2016-07-13T06:33:33.392Z,67.07
2016-07-13T06:34:33.419Z,66.3
2016-07-13T06:35:33.438Z,66.3
2016-07-13T06:36:33.455Z,66.23
2016-07-13T06:37:33.481Z,66.04
2016-07-13T06:38:33.498Z,65.94
2016-07-13T06:39:33.520Z,66.33
2016-07-13T06:40:33.542Z,66.04
2016-07-13T06:41:33.565Z,66.04
2016-07-13T06:42:33.580Z,66.14
2016-07-13T06:43:33.607Z,65.56
2016-07-13T06:44:33.625Z,65.75
2016-07-13T06:45:33.640Z,65.56
2016-07-13T06:46:33.664Z,66.52
2016-07-13T06:47:33.688Z,66.33
2016-07-13T06:48:33.709Z,66.33
2016-07-13T06:49:33.728Z,66.52
2016-07-13T06:50:33.739Z,65.75
2016-07-13T06:51:33.764Z,65.84
2016-07-13T06:52:33.796Z,65.94
2016-07-13T06:53:33.812Z,66.04
2016-07-13T06:54:33.833Z,65.75
2016-07-13T06:55:33.848Z,64.98
2016-07-13T06:56:33.874Z,65.08
2016-07-13T06:57:33.895Z,64.89
2016-07-13T06:58:33.911Z,64.22
2016-07-13T06:59:33.935Z,64.25
2016-07-13T07:00:33.952Z,64.73
2016-07-13T07:01:33.976Z,65.2
2016-07-13T07:02:33.995Z,65.11
2016-07-13T07:03:34.018Z,65.08
2016-07-13T07:04:34.033Z,65.66
2016-07-13T07:05:34.066Z,64.92
2016-07-13T07:06:34.078Z,65.08
2016-07-13T07:07:34.097Z,64.73
2016-07-13T07:08:34.119Z,64.34
2016-07-13T07:09:34.132Z,64.43
2016-07-13T07:10:34.162Z,64.53
2016-07-13T07:11:34.184Z,64.25
2016-07-13T07:12:34.203Z,64.25
2016-07-13T07:13:34.226Z,64.63
2016-07-13T07:14:34.242Z,65.11
2016-07-13T07:15:34.264Z,65.78
2016-07-13T07:16:34.279Z,65.59
2016-07-13T07:17:34.302Z,64.63
2016-07-13T07:18:34.326Z,64.73
2016-07-13T07:19:34.343Z,63.99
2016-07-13T07:20:34.370Z,64.08
2016-07-13T07:21:34.391Z,64.76
2016-07-13T07:22:34.411Z,64.28
2016-07-13T07:23:34.432Z,63.89
2016-07-13T07:24:34.452Z,62.74
2016-07-13T07:25:34.478Z,62.64
2016-07-13T07:26:34.496Z,62.26
2016-07-13T07:27:34.516Z,61.97
2016-07-13T07:28:34.536Z,61.9
2016-07-13T07:29:34.556Z,61.71
2016-07-13T07:30:34.581Z,62.09
2016-07-13T07:31:34.600Z,62.87
2016-07-13T07:32:34.622Z,63.41
2016-07-13T07:33:34.644Z,62.93
2016-07-13T07:34:34.658Z,62.35
2016-07-13T07:35:34.688Z,62.26
2016-07-13T07:36:34.710Z,62.64
2016-07-13T07:37:34.724Z,62.16
2016-07-13T07:38:34.746Z,62.29
2016-07-13T07:39:34.768Z,62.29
2016-07-13T07:40:34.796Z,63.41
2016-07-13T07:41:34.810Z,62.54
2016-07-13T07:42:34.838Z,61.49
2016-07-13T07:43:34.850Z,61.22
2016-07-13T07:44:34.880Z,60.27
2016-07-13T07:45:34.900Z,59.14
2016-07-13T07:46:34.922Z,58.49
2016-07-13T07:47:34.941Z,58.3
2016-07-13T07:48:34.961Z,57.53
2016-07-13T07:49:34.987Z,57.34
2016-07-13T07:50:34.999Z,56.88
2016-07-13T07:51:35.028Z,57.07
2016-07-13T07:52:35.042Z,58.04
2016-07-13T07:53:35.074Z,58.78
2016-07-13T07:54:35.082Z,59.07
2016-07-13T07:55:35.112Z,60.32
2016-07-13T07:56:35.132Z,60
2016-07-13T07:57:35.158Z,59.23
2016-07-13T07:58:35.177Z,59.14
2016-07-13T07:59:35.198Z,59.04
2016-07-13T08:00:35.215Z,58.75
2016-07-13T08:01:35.244Z,59.14
2016-07-13T08:02:35.260Z,59.04
2016-07-13T08:03:35.284Z,59.14
2016-07-13T08:04:35.298Z,59.23
2016-07-13T08:05:35.330Z,59.62
2016-07-13T08:06:35.343Z,60.3
2016-07-13T08:07:35.374Z,61.52
2016-07-13T08:08:35.393Z,61.42
2016-07-13T08:09:35.418Z,61.58
2016-07-13T08:10:35.440Z,60.27
2016-07-13T08:11:35.455Z,58.72
2016-07-13T08:12:35.481Z,58.08
2016-07-13T08:13:35.495Z,57.4
2016-07-13T08:14:35.518Z,56.85
2016-07-13T08:15:35.537Z,56.95
2016-07-13T08:16:35.560Z,56.85
2016-07-13T08:17:35.585Z,56.95
2016-07-13T08:18:35.606Z,57.43
2016-07-13T08:19:35.620Z,57.43
2016-07-13T08:20:35.666Z,56.85
2016-07-13T08:21:35.668Z,55.7
2016-07-13T08:22:35.692Z,55.05
2016-07-13T08:23:35.708Z,54.4
2016-07-13T08:24:35.731Z,54.02
2016-07-13T08:25:35.754Z,52.95
2016-07-13T08:26:35.782Z,52.79
2016-07-13T08:27:35.800Z,52.28
2016-07-13T08:28:35.818Z,51.63
2016-07-13T08:29:35.843Z,51.41
2016-07-13T08:30:35.875Z,50.26
2016-07-13T08:31:35.887Z,50.57
2016-07-13T08:32:35.913Z,49.99
2016-07-13T08:33:35.932Z,49.63
2016-07-13T08:34:35.954Z,48.95
2016-07-13T08:35:35.977Z,48.57
2016-07-13T08:36:36.003Z,49.9
2016-07-13T08:37:36.026Z,49.7
2016-07-13T08:38:36.040Z,49.51
2016-07-13T08:39:36.068Z,49.12
2016-07-13T08:40:36.082Z,48.44
2016-07-13T08:41:36.116Z,48.47
2016-07-13T08:42:36.128Z,47.5
2016-07-13T08:43:36.154Z,46.44
2016-07-13T08:44:36.177Z,47.02
2016-07-13T08:45:36.203Z,46.73
2016-07-13T08:46:36.229Z,46.61
2016-07-13T08:47:36.246Z,47.67
2016-07-13T08:48:36.260Z,48.54
2016-07-13T08:49:36.296Z,48.44
2016-07-13T08:50:36.316Z,48.64
2016-07-13T08:51:36.328Z,48.35
2016-07-13T08:52:36.356Z,48.54
2016-07-13T08:53:36.379Z,47.67
2016-07-13T08:54:36.400Z,46.9
2016-07-13T08:55:36.421Z,45.94
2016-07-13T08:56:36.443Z,46.13
2016-07-13T08:57:36.474Z,46.81
2016-07-13T08:58:36.491Z,46.61
2016-07-13T08:59:36.514Z,46.51
2016-07-13T09:00:36.539Z,46.81
2016-07-13T09:01:36.561Z,47.77
2016-07-13T09:02:36.581Z,48.83
2016-07-13T09:03:36.608Z,49.32
2016-07-13T09:04:36.617Z,49.39
2016-07-13T09:05:36.650Z,49.75
2016-07-13T09:06:36.664Z,50.13
2016-07-13T09:07:36.694Z,51.17
2016-07-13T09:08:36.712Z,50.21
2016-07-13T09:09:36.737Z,49.43
2016-07-13T09:10:36.756Z,49.37
2016-07-13T09:11:36.779Z,49.65
2016-07-13T09:12:36.808Z,49.17
2016-07-13T09:13:36.820Z,46.69
2016-07-13T09:14:36.840Z,45.34
2016-07-13T09:15:36.866Z,45.53
2016-07-13T09:16:36.893Z,45.79
2016-07-13T09:17:36.906Z,46.95
2016-07-13T09:18:36.932Z,48.11
2016-07-13T09:19:36.962Z,48.47
2016-07-13T09:20:36.977Z,48.76
2016-07-13T09:21:37.003Z,49.24
2016-07-13T09:22:37.025Z,48.69
2016-07-13T09:23:37.044Z,48.69
2016-07-13T09:24:37.067Z,48.59
2016-07-13T09:25:37.084Z,48.69
2016-07-13T09:26:37.108Z,48.11
2016-07-13T09:27:37.135Z,48.59
2016-07-13T09:28:37.154Z,48.88
2016-07-13T09:29:37.170Z,48.47
2016-07-13T09:30:37.200Z,48.66
2016-07-13T09:31:37.215Z,48.01
2016-07-13T09:32:37.239Z,48.21
2016-07-13T09:33:37.260Z,48.79
2016-07-13T09:34:37.285Z,47.44
2016-07-13T09:35:37.306Z,46.66
2016-07-13T09:36:37.327Z,45.79
2016-07-13T09:37:37.345Z,46.47
2016-07-13T09:38:37.368Z,45.99
2016-07-13T09:39:37.389Z,45.53
2016-07-13T09:40:37.408Z,44.49
2016-07-13T09:41:37.443Z,43.62
2016-07-13T09:42:37.461Z,43.35
2016-07-13T09:43:37.477Z,41.91
2016-07-13T09:44:37.507Z,42.68
2016-07-13T09:45:37.525Z,43.35
2016-07-13T09:46:37.548Z,42
2016-07-13T09:47:37.567Z,42.29
2016-07-13T09:48:37.594Z,41.54
2016-07-13T09:49:37.616Z,42.7
2016-07-13T09:50:37.637Z,41.25
2016-07-13T09:51:37.657Z,40.98
2016-07-13T09:52:37.683Z,40.98
2016-07-13T09:53:37.706Z,41.56
2016-07-13T09:54:37.725Z,41.44
2016-07-13T09:55:37.753Z,42.02
2016-07-13T09:56:37.768Z,43.18
2016-07-13T09:57:37.793Z,42.77
2016-07-13T09:58:37.807Z,43.26
2016-07-13T09:59:37.842Z,42.19
2016-07-13T10:00:37.860Z,43.14
2016-07-13T10:01:37.881Z,43.41
2016-07-13T10:02:37.899Z,43.5
2016-07-13T10:03:37.927Z,43.38
2016-07-13T10:04:37.958Z,43.67
2016-07-13T10:05:37.967Z,44.45
2016-07-13T10:06:37.994Z,44.45
2016-07-13T10:07:38.016Z,43.41
2016-07-13T10:08:38.039Z,42.15
2016-07-13T10:09:38.060Z,41.28
2016-07-13T10:10:38.080Z,41.48
2016-07-13T10:11:38.109Z,39.76
2016-07-13T10:12:38.123Z,37.37
2016-07-13T10:13:38.157Z,36.21
2016-07-13T10:14:38.172Z,36.32
2016-07-13T10:15:38.197Z,36.22
2016-07-13T10:16:38.216Z,36.53
2016-07-13T10:17:38.242Z,37.6
2016-07-13T10:18:38.264Z,37.5
2016-07-13T10:19:38.281Z,39.8
2016-07-13T10:20:38.308Z,39.32
2016-07-13T10:21:38.327Z,39.32
2016-07-13T10:22:38.349Z,38.93
2016-07-13T10:23:38.365Z,37.77
2016-07-13T10:24:38.391Z,38.54
2016-07-13T10:25:38.421Z,39.2
2016-07-13T10:26:38.441Z,39.57
2016-07-13T10:27:38.460Z,39.95
2016-07-13T10:28:38.486Z,40.34
2016-07-13T10:29:38.508Z,39.11
2016-07-13T10:30:38.525Z,38.33
2016-07-13T10:31:38.553Z,39.01
2016-07-13T10:32:38.576Z,38.62
2016-07-13T10:33:38.594Z,38.91
2016-07-13T10:34:38.622Z,38.04
2016-07-13T10:35:38.643Z,37.87
2016-07-13T10:36:38.669Z,38.06
2016-07-13T10:37:38.685Z,37.21
2016-07-13T10:38:38.706Z,37.79
2016-07-13T10:39:38.735Z,37.5
2016-07-13T10:40:38.763Z,37.88
2016-07-13T10:41:38.779Z,38.54
2016-07-13T10:42:38.794Z,39.12
2016-07-13T10:43:38.825Z,38.93
2016-07-13T10:44:38.848Z,38.53
2016-07-13T10:45:38.866Z,37.75
2016-07-13T10:46:38.888Z,36.59
2016-07-13T10:47:38.913Z,36.59
2016-07-13T10:48:38.932Z,36.3
2016-07-13T10:49:38.957Z,35.82
2016-07-13T10:50:38.981Z,34.76
2016-07-13T10:51:39.001Z,35.34
2016-07-13T10:52:39.027Z,36.01
2016-07-13T10:53:39.044Z,36.4
2016-07-13T10:54:39.077Z,35.05
2016-07-13T10:55:39.087Z,34.68
2016-07-13T10:56:39.114Z,33.83
2016-07-13T10:57:39.142Z,34.31
2016-07-13T10:58:39.165Z,33.83
2016-07-13T10:59:39.184Z,33.75
2016-07-13T11:00:39.208Z,33.75
2016-07-13T11:01:39.233Z,33.94
2016-07-13T11:02:39.254Z,33.07
2016-07-13T11:03:39.281Z,33.36
2016-07-13T11:04:39.299Z,33.45
2016-07-13T11:05:39.319Z,33.47
2016-07-13T11:06:39.344Z,34.44
2016-07-13T11:07:39.366Z,35.04
2016-07-13T11:08:39.390Z,34.55
2016-07-13T11:09:39.415Z,34.73
2016-07-13T11:10:39.434Z,34.63
2016-07-13T11:11:39.458Z,34.92
2016-07-13T11:12:39.475Z,35.12
2016-07-13T11:13:39.500Z,36.36
2016-07-13T11:14:39.526Z,35.41
2016-07-13T11:15:39.552Z,36.47
2016-07-13T11:16:39.571Z,36.28
2016-07-13T11:17:39.604Z,36.18
2016-07-13T11:18:39.618Z,36.18
2016-07-13T11:19:39.641Z,35.5
2016-07-13T11:20:39.665Z,35.6
2016-07-13T11:21:39.692Z,35.58
2016-07-13T11:22:39.707Z,35.58
2016-07-13T11:23:39.735Z,36.26
2016-07-13T11:24:39.755Z,36.34
2016-07-13T11:25:39.785Z,35.47
2016-07-13T11:26:39.802Z,34.79
2016-07-13T11:27:39.830Z,34.6
2016-07-13T11:28:39.847Z,32.28
2016-07-13T11:29:39.877Z,32.57
2016-07-13T11:30:39.888Z,33.05
2016-07-13T11:31:39.922Z,33.94
2016-07-13T11:32:39.942Z,34.13
2016-07-13T11:33:39.970Z,34.25
2016-07-13T11:34:39.984Z,33.18
2016-07-13T11:35:40.013Z,33.86
2016-07-13T11:36:40.029Z,32.51
2016-07-13T11:37:40.062Z,32.81
2016-07-13T11:38:40.079Z,33.69
2016-07-13T11:39:40.099Z,33.39
2016-07-13T11:40:40.130Z,34.07
2016-07-13T11:41:40.153Z,33.39
2016-07-13T11:42:40.178Z,32.52
2016-07-13T11:43:40.196Z,33.22
2016-07-13T11:44:40.223Z,33.8
2016-07-13T11:45:40.249Z,34.36
2016-07-13T11:46:40.272Z,33.76
2016-07-13T11:47:40.286Z,33.76
2016-07-13T11:48:40.316Z,33.18
2016-07-13T11:49:40.341Z,34.73
2016-07-13T11:50:40.357Z,34.13
2016-07-13T11:51:40.390Z,34.44
2016-07-13T11:52:40.410Z,34.73
2016-07-13T11:53:40.433Z,34.63
2016-07-13T11:54:40.449Z,34.63
2016-07-13T11:55:40.470Z,34.75
2016-07-13T11:56:40.494Z,34.63
2016-07-13T11:57:40.528Z,35.41
2016-07-13T11:58:40.546Z,35.89
2016-07-13T11:59:40.569Z,35.7
2016-07-13T12:00:40.594Z,34.75
2016-07-13T12:01:40.619Z,34.75
2016-07-13T12:02:40.641Z,35.62
2016-07-13T12:03:40.664Z,35.6
2016-07-13T12:04:40.682Z,34.36
2016-07-13T12:05:40.716Z,33.8
2016-07-13T12:06:40.736Z,33.29
2016-07-13T12:07:40.758Z,33.7
2016-07-13T12:08:40.786Z,34.07
2016-07-13T12:09:40.803Z,33.41
2016-07-13T12:10:40.829Z,33.01
2016-07-13T12:11:40.850Z,32.64
2016-07-13T12:12:40.877Z,32.73
2016-07-13T12:13:40.898Z,34.17
2016-07-13T12:14:40.922Z,33.59
2016-07-13T12:15:40.948Z,34.75
2016-07-13T12:16:40.971Z,34.63
2016-07-13T12:17:40.993Z,34.36
2016-07-13T12:18:41.013Z,32.33
2016-07-13T12:19:41.041Z,31.74
2016-07-13T12:20:41.066Z,32.89
2016-07-13T12:21:41.082Z,33.94
2016-07-13T12:22:41.108Z,33.94
2016-07-13T12:23:41.134Z,32.41
2016-07-13T12:24:41.159Z,31.74
2016-07-13T12:25:41.186Z,31.83
2016-07-13T12:26:41.204Z,32.99
2016-07-13T12:27:41.226Z,33.18
2016-07-13T12:28:41.244Z,32.89
2016-07-13T12:29:41.265Z,32.21
2016-07-13T12:30:41.297Z,33.37
2016-07-13T12:31:41.315Z,34.81
2016-07-13T12:32:41.338Z,36.26
2016-07-13T12:33:41.378Z,36.46
2016-07-13T12:34:41.388Z,36.07
2016-07-13T12:35:41.413Z,35.97
2016-07-13T12:36:41.433Z,36.07
2016-07-13T12:37:41.458Z,35.41
2016-07-13T12:38:41.480Z,36.36
2016-07-13T12:39:41.501Z,35.88
2016-07-13T12:40:41.531Z,35.41
2016-07-13T12:41:41.547Z,35.88
2016-07-13T12:42:41.579Z,36.26
2016-07-13T12:43:41.597Z,36.55
2016-07-13T12:44:41.625Z,36.36
2016-07-13T12:45:41.643Z,36.36
2016-07-13T12:46:41.663Z,36.74
2016-07-13T12:47:41.691Z,36.84
2016-07-13T12:48:41.717Z,36.55
2016-07-13T12:49:41.733Z,35.97
2016-07-13T12:50:41.756Z,36.36
2016-07-13T12:51:41.783Z,36.55
2016-07-13T12:52:41.810Z,36.94
2016-07-13T12:53:41.832Z,36.74
2016-07-13T12:54:41.855Z,37.04
2016-07-13T12:55:41.872Z,36.57
2016-07-13T12:56:41.893Z,36.38